createdAt,value
2022-12-23T00:02:54.844Z,5.56
2022-12-23T00:05:59.225Z,5.60
2022-12-23T00:09:02.648Z,5.64
2022-12-23T00:12:24.359Z,5.58
2022-12-23T00:15:29.357Z,5.63
2022-12-23T00:18:33.026Z,5.66
2022-12-23T00:21:36.886Z,5.69
2022-12-23T00:24:40.084Z,5.66
2022-12-23T00:28:01.239Z,5.65
2022-12-23T00:31:08.108Z,5.66
2022-12-23T00:34:12.947Z,5.66
2022-12-23T00:37:16.112Z,5.69
2022-12-23T00:40:37.062Z,5.71
2022-12-23T00:43:40.276Z,5.74
2022-12-23T00:46:45.156Z,5.75
2022-12-23T00:49:47.589Z,5.76
2022-12-23T00:52:50.734Z,5.70
2022-12-23T00:55:54.230Z,5.65
2022-12-23T00:58:57.791Z,5.66
2022-12-23T01:02:20.579Z,5.74
2022-12-23T01:05:39.829Z,5.67
2022-12-23T01:08:43.614Z,5.75
2022-12-23T01:11:46.804Z,5.75
2022-12-23T01:14:50.848Z,5.79
2022-12-23T01:17:56.605Z,5.81
2022-12-23T01:21:04.123Z,5.75
2022-12-23T01:24:08.473Z,5.66
2022-12-23T01:27:12.060Z,5.68
2022-12-23T01:30:15.684Z,5.70
2022-12-23T01:33:20.418Z,5.64
2022-12-23T01:36:24.799Z,5.61
2022-12-23T01:39:28.483Z,5.70
2022-12-23T01:42:47.558Z,5.74
2022-12-23T01:45:51.136Z,5.76
2022-12-23T01:48:56.467Z,5.71
2022-12-23T01:51:59.698Z,5.72
2022-12-23T01:55:03.791Z,5.76
2022-12-23T01:58:13.737Z,5.75
2022-12-23T02:01:35.021Z,5.77
2022-12-23T02:04:39.613Z,5.78
2022-12-23T02:08:03.264Z,5.78
2022-12-23T02:11:35.836Z,5.84
2022-12-23T02:15:14.744Z,5.89
2022-12-23T02:18:38.438Z,5.85
2022-12-23T02:22:14.247Z,5.90
2022-12-23T02:25:49.237Z,5.90
2022-12-23T02:29:32.039Z,5.93
2022-12-23T02:32:58.316Z,5.93
2022-12-23T02:36:18.629Z,5.97
2022-12-23T02:39:36.963Z,5.98
2022-12-23T02:42:48.212Z,5.99
2022-12-23T02:46:01.157Z,6.00
2022-12-23T02:49:12.625Z,5.98
2022-12-23T02:52:20.229Z,6.01
2022-12-23T02:55:29.237Z,6.00
2022-12-23T02:58:41.436Z,6.02
2022-12-23T03:01:47.094Z,5.99
2022-12-23T03:04:51.854Z,6.00
2022-12-23T03:07:59.561Z,5.95
2022-12-23T03:11:11.031Z,5.97
2022-12-23T03:14:53.612Z,6.03
2022-12-23T03:18:05.197Z,6.03
2022-12-23T03:21:17.204Z,6.06
2022-12-23T03:24:27.816Z,6.08
2022-12-23T03:27:39.948Z,6.05
2022-12-23T03:30:54.074Z,6.07
2022-12-23T03:34:02.853Z,6.10
2022-12-23T03:37:12.304Z,6.11
2022-12-23T03:40:21.679Z,6.11
2022-12-23T03:43:32.068Z,6.11
2022-12-23T03:46:46.786Z,6.11
2022-12-23T03:49:58.003Z,6.11
2022-12-23T03:53:09.107Z,6.13
2022-12-23T03:56:21.914Z,6.14
2022-12-23T03:59:29.881Z,6.12
2022-12-23T04:02:40.441Z,6.14
2022-12-23T04:05:51.012Z,6.12
2022-12-23T04:08:55.819Z,6.15
2022-12-23T04:12:00.007Z,6.15
2022-12-23T04:15:07.503Z,6.17
2022-12-23T04:18:13.974Z,6.17
2022-12-23T04:21:18.143Z,6.16
2022-12-23T04:24:24.574Z,6.19
2022-12-23T04:27:27.857Z,6.20
2022-12-23T04:30:34.346Z,6.21
2022-12-23T04:33:37.938Z,6.17
2022-12-23T04:36:40.943Z,6.19
2022-12-23T04:39:45.239Z,6.19
2022-12-23T04:42:48.730Z,6.25
2022-12-23T04:45:53.238Z,6.23
2022-12-23T04:48:57.529Z,6.30
2022-12-23T04:52:00.844Z,6.25
2022-12-23T04:55:08.866Z,6.25
2022-12-23T04:58:12.373Z,6.26
2022-12-23T05:01:16.854Z,6.31
2022-12-23T05:04:23.672Z,6.31
2022-12-23T05:07:27.180Z,6.32
2022-12-23T05:10:31.619Z,6.30
2022-12-23T05:13:34.675Z,6.29
2022-12-23T05:16:37.884Z,6.26
2022-12-23T05:19:41.205Z,6.26
2022-12-23T05:22:44.236Z,6.28
2022-12-23T05:25:53.879Z,6.27
2022-12-23T05:28:57.135Z,6.27
2022-12-23T05:32:03.570Z,6.21
2022-12-23T05:35:12.044Z,6.18
2022-12-23T05:38:15.178Z,6.10
2022-12-23T05:41:19.552Z,6.17
2022-12-23T05:44:22.568Z,6.17
2022-12-23T05:47:25.651Z,6.20
2022-12-23T05:50:32.301Z,6.16
2022-12-23T05:53:37.930Z,6.17
2022-12-23T05:56:42.435Z,6.17
2022-12-23T05:59:45.414Z,6.23
2022-12-23T06:02:53.495Z,6.18
2022-12-23T06:05:57.313Z,6.26
2022-12-23T06:09:00.545Z,6.28
2022-12-23T06:12:05.632Z,6.27
2022-12-23T06:15:09.958Z,6.29
2022-12-23T06:18:12.938Z,6.28
2022-12-23T06:21:15.951Z,6.29
2022-12-23T06:24:18.984Z,6.33
2022-12-23T06:27:23.342Z,6.34
2022-12-23T06:30:26.395Z,6.35
2022-12-23T06:33:29.631Z,6.36
2022-12-23T06:36:54.289Z,6.33
2022-12-23T06:39:57.561Z,6.29
2022-12-23T06:43:02.288Z,6.28
2022-12-23T06:46:05.912Z,6.16
2022-12-23T06:55:14.022Z,6.22
2022-12-23T06:58:18.489Z,6.24
2022-12-23T07:01:22.266Z,6.28
2022-12-23T07:04:25.211Z,6.28
2022-12-23T07:07:32.141Z,6.43
2022-12-23T07:10:35.219Z,6.44
2022-12-23T07:13:39.512Z,6.45
2022-12-23T07:16:42.652Z,6.45
2022-12-23T07:19:45.787Z,6.47
2022-12-23T07:22:50.386Z,6.52
2022-12-23T07:25:53.341Z,6.54
2022-12-23T07:28:57.645Z,6.51
2022-12-23T07:32:02.751Z,6.54
2022-12-23T07:35:06.991Z,6.50
2022-12-23T07:38:10.952Z,6.51
2022-12-23T07:41:13.909Z,6.56
2022-12-23T07:44:18.217Z,6.58
2022-12-23T07:47:21.241Z,6.67
2022-12-23T07:50:25.386Z,6.68
2022-12-23T07:53:28.560Z,6.70
2022-12-23T07:56:31.543Z,6.77
2022-12-23T07:59:38.722Z,6.83
2022-12-23T08:02:43.464Z,6.89
2022-12-23T08:05:47.708Z,6.93
2022-12-23T08:08:51.264Z,6.89
2022-12-23T08:11:54.347Z,6.90
2022-12-23T08:14:58.914Z,6.89
2022-12-23T08:18:01.911Z,6.86
2022-12-23T08:21:08.225Z,6.87
2022-12-23T08:24:11.282Z,6.91
2022-12-23T08:27:14.444Z,6.91
2022-12-23T08:30:19.007Z,6.90
2022-12-23T08:33:22.283Z,6.88
2022-12-23T08:36:28.743Z,6.90
2022-12-23T08:39:31.780Z,6.88
2022-12-23T08:42:35.063Z,6.91
2022-12-23T08:45:40.161Z,6.90
2022-12-23T08:48:48.950Z,6.94
2022-12-23T08:51:52.800Z,6.97
2022-12-23T08:54:55.817Z,7.00
2022-12-23T08:57:58.861Z,6.95
2022-12-23T09:01:06.723Z,6.96
2022-12-23T09:04:10.703Z,6.95
2022-12-23T09:07:13.835Z,6.91
2022-12-23T09:10:17.212Z,6.89
2022-12-23T09:13:29.390Z,6.91
2022-12-23T09:16:39.834Z,6.95
2022-12-23T09:19:45.899Z,6.96
2022-12-23T09:22:53.490Z,6.98
2022-12-23T09:25:56.936Z,6.99
2022-12-23T09:29:00.652Z,7.04
2022-12-23T09:32:05.099Z,7.02
2022-12-23T09:35:10.051Z,7.01
2022-12-23T09:38:13.057Z,7.05
2022-12-23T09:41:31.189Z,7.06
2022-12-23T09:45:13.849Z,7.09
2022-12-23T09:48:22.784Z,7.06
2022-12-23T09:51:26.006Z,7.06
2022-12-23T09:54:33.630Z,7.07
2022-12-23T09:57:46.550Z,7.10
2022-12-23T10:01:06.205Z,7.10
2022-12-23T10:04:35.772Z,7.12
2022-12-23T10:07:45.779Z,7.10
2022-12-23T10:10:53.189Z,7.09
2022-12-23T10:14:01.233Z,7.03
2022-12-23T10:17:15.137Z,7.06
2022-12-23T10:20:28.600Z,7.07
2022-12-23T10:23:38.202Z,7.06
2022-12-23T10:26:52.502Z,7.07
2022-12-23T10:29:56.205Z,7.10
2022-12-23T10:33:05.608Z,7.10
2022-12-23T10:36:17.118Z,7.09
2022-12-23T10:39:29.619Z,7.15
2022-12-23T10:42:39.539Z,7.16
2022-12-23T10:45:52.821Z,7.22
2022-12-23T10:49:07.490Z,7.27
2022-12-23T10:52:17.686Z,7.33
2022-12-23T10:55:33.268Z,7.43
2022-12-23T11:04:24.361Z,7.44
2022-12-23T11:07:56.947Z,7.33
2022-12-23T11:11:03.621Z,7.36
2022-12-23T11:14:06.662Z,7.49
2022-12-23T11:17:54.965Z,7.52
2022-12-23T11:21:07.209Z,7.59
2022-12-23T11:24:18.067Z,7.54
2022-12-23T11:27:21.499Z,7.56
2022-12-23T11:30:25.487Z,7.48
2022-12-23T11:33:32.322Z,7.43
2022-12-23T11:36:36.473Z,7.37
2022-12-23T11:39:47.909Z,7.41
2022-12-23T11:42:57.483Z,7.40
2022-12-23T11:46:22.603Z,7.39
2022-12-23T11:49:28.045Z,7.39
2022-12-23T11:52:33.373Z,7.39
2022-12-23T11:55:43.273Z,7.40
2022-12-23T11:58:50.369Z,7.43
2022-12-23T12:01:53.920Z,7.42
2022-12-23T12:05:01.920Z,7.45
2022-12-23T12:08:10.761Z,7.39
2022-12-23T12:11:19.555Z,7.42
2022-12-23T12:14:29.206Z,7.48
2022-12-23T12:17:38.907Z,7.46
2022-12-23T12:20:46.386Z,7.41
2022-12-23T12:24:08.345Z,7.39
2022-12-23T12:27:19.024Z,7.40
2022-12-23T12:30:23.067Z,7.45
2022-12-23T12:33:35.881Z,7.50
2022-12-23T12:36:45.150Z,7.55
2022-12-23T12:39:55.290Z,7.57
2022-12-23T12:43:06.326Z,7.52
2022-12-23T12:46:23.755Z,7.50
2022-12-23T12:49:34.016Z,7.51
2022-12-23T12:52:42.114Z,7.50
2022-12-23T12:55:52.003Z,7.61
2022-12-23T12:59:03.406Z,7.57
2022-12-23T13:02:30.422Z,7.45
2022-12-23T13:05:58.968Z,7.60
2022-12-23T13:09:12.080Z,7.51
2022-12-23T13:12:26.140Z,7.71
2022-12-23T13:15:37.352Z,7.69
2022-12-23T13:18:49.250Z,7.61
2022-12-23T13:22:00.567Z,7.52
2022-12-23T13:25:11.921Z,7.58
2022-12-23T13:28:31.685Z,7.51
2022-12-23T13:31:50.653Z,7.57
2022-12-23T13:35:04.513Z,7.58
2022-12-23T13:38:24.422Z,7.66
2022-12-23T13:41:34.395Z,7.60
2022-12-23T13:44:37.818Z,7.69
2022-12-23T13:47:50.433Z,7.66
2022-12-23T13:51:02.172Z,7.56
2022-12-23T13:54:17.234Z,7.65
2022-12-23T13:57:43.022Z,7.52
2022-12-23T14:00:47.180Z,7.43
2022-12-23T14:03:52.427Z,7.49
2022-12-23T14:06:58.489Z,7.42
2022-12-23T14:10:14.970Z,7.34
2022-12-23T14:13:19.436Z,7.36
2022-12-23T14:16:47.029Z,7.36
2022-12-23T14:20:11.350Z,7.32
2022-12-23T14:23:33.332Z,7.39
2022-12-23T14:27:03.697Z,7.30
2022-12-23T14:30:14.906Z,7.18
2022-12-23T14:33:25.568Z,7.28
2022-12-23T14:36:30.029Z,7.26
2022-12-23T14:39:34.371Z,7.26
2022-12-23T14:42:42.734Z,7.31
2022-12-23T14:45:46.041Z,7.28
2022-12-23T14:49:40.129Z,7.14
2022-12-23T14:52:51.144Z,7.14
2022-12-23T14:56:13.552Z,7.21
2022-12-23T14:59:31.734Z,7.16
2022-12-23T15:02:38.837Z,7.09
2022-12-23T15:05:43.476Z,7.01
2022-12-23T15:08:50.037Z,7.09
2022-12-23T15:11:54.994Z,7.12
2022-12-23T15:15:03.797Z,7.16
2022-12-23T15:18:13.411Z,7.15
2022-12-23T15:21:16.448Z,7.15
2022-12-23T15:24:23.181Z,7.12
2022-12-23T15:27:28.815Z,7.13
2022-12-23T15:30:38.520Z,7.06
2022-12-23T15:37:11.197Z,7.00
2022-12-23T15:40:27.208Z,6.94
2022-12-23T15:43:30.966Z,6.95
2022-12-23T15:46:33.977Z,6.92
2022-12-23T15:49:37.073Z,6.84
2022-12-23T15:52:42.501Z,6.65
2022-12-23T15:55:49.612Z,6.63
2022-12-23T15:58:54.366Z,6.63
2022-12-23T16:01:57.872Z,6.60
2022-12-23T16:05:05.398Z,6.58
2022-12-23T16:08:28.622Z,6.55
2022-12-23T16:11:51.480Z,6.46
2022-12-23T16:14:56.928Z,6.38
2022-12-23T16:18:14.195Z,6.36
2022-12-23T16:21:17.241Z,6.34
2022-12-23T16:24:22.058Z,6.38
2022-12-23T16:27:36.357Z,6.40
2022-12-23T16:30:43.523Z,6.40
2022-12-23T16:33:50.818Z,6.41
2022-12-23T16:36:53.861Z,6.41
2022-12-23T16:39:57.037Z,6.39
2022-12-23T16:43:01.705Z,6.41
2022-12-23T16:46:05.223Z,6.47
2022-12-23T16:49:10.938Z,6.47
2022-12-23T16:52:15.153Z,6.39
2022-12-23T16:55:20.924Z,6.45
2022-12-23T16:58:25.447Z,6.50
2022-12-23T17:01:32.154Z,6.51
2022-12-23T17:04:35.184Z,6.55
2022-12-23T17:07:43.214Z,6.51
2022-12-23T17:10:49.274Z,6.51
2022-12-23T17:13:59.624Z,6.59
2022-12-23T17:17:18.194Z,6.59
2022-12-23T17:20:23.311Z,6.63
2022-12-23T17:23:31.560Z,6.64
2022-12-23T17:26:34.630Z,6.65
2022-12-23T17:29:38.946Z,6.65
2022-12-23T17:32:43.222Z,6.67
2022-12-23T17:35:46.263Z,6.65
2022-12-23T17:38:49.274Z,6.66
2022-12-23T17:41:52.592Z,6.67
2022-12-23T17:44:56.917Z,6.68
2022-12-23T17:47:59.917Z,6.69
2022-12-23T17:51:06.431Z,6.70
2022-12-23T17:54:22.527Z,6.70
2022-12-23T17:57:28.025Z,6.68
2022-12-23T18:00:34.627Z,6.69
2022-12-23T18:03:37.825Z,6.68
2022-12-23T18:06:41.020Z,6.69
2022-12-23T18:09:44.278Z,6.68
2022-12-23T18:12:50.414Z,6.68
2022-12-23T18:15:54.789Z,6.68
2022-12-23T18:18:58.072Z,6.65
2022-12-23T18:22:01.060Z,6.71
2022-12-23T18:25:04.778Z,6.69
2022-12-23T18:28:07.982Z,6.66
2022-12-23T18:31:17.051Z,6.56
2022-12-23T18:34:20.849Z,6.55
2022-12-23T18:37:25.053Z,6.55
2022-12-23T18:40:33.171Z,6.59
2022-12-23T18:43:36.613Z,6.59
2022-12-23T18:46:41.027Z,6.61
2022-12-23T18:49:44.107Z,6.58
2022-12-23T18:52:47.540Z,6.52
2022-12-23T18:55:51.297Z,6.52
2022-12-23T18:58:54.357Z,6.51
2022-12-23T19:01:59.058Z,6.43
2022-12-23T19:05:04.213Z,6.44
2022-12-23T19:08:07.768Z,6.32
2022-12-23T19:11:13.781Z,6.34
2022-12-23T19:14:17.339Z,6.34
2022-12-23T19:17:22.260Z,6.32
2022-12-23T19:20:25.610Z,6.33
2022-12-23T19:23:29.344Z,6.39
2022-12-23T19:31:21.467Z,6.48
2022-12-23T19:34:50.675Z,6.47
2022-12-23T19:38:39.619Z,6.43
2022-12-23T19:42:12.852Z,6.37
2022-12-23T19:46:09.087Z,6.29
2022-12-23T19:50:15.972Z,6.31
2022-12-23T19:53:56.580Z,6.32
2022-12-23T20:13:24.411Z,6.30
2022-12-23T20:18:09.691Z,6.29
2022-12-23T20:27:31.255Z,6.25
2022-12-23T20:32:21.818Z,6.22
2022-12-23T20:40:50.993Z,6.16
2022-12-23T20:44:36.165Z,6.19
2022-12-23T20:48:08.537Z,6.25
2022-12-23T20:51:53.387Z,6.27
2022-12-23T20:55:48.114Z,6.25
2022-12-23T20:59:26.395Z,6.25
2022-12-23T21:50:44.939Z,6.06
2022-12-23T21:54:17.135Z,6.01
2022-12-23T21:57:51.679Z,6.03
2022-12-23T22:06:35.044Z,5.96
2022-12-23T22:10:09.411Z,5.97
2022-12-23T22:14:34.849Z,5.97
2022-12-23T22:18:02.574Z,5.91
2022-12-23T22:21:37.769Z,5.94
2022-12-23T22:24:44.142Z,5.92
2022-12-23T22:27:49.019Z,5.91
2022-12-23T22:30:55.223Z,5.90
2022-12-23T22:34:01.580Z,5.87
2022-12-23T22:37:11.347Z,5.87
2022-12-23T22:40:27.407Z,5.82
2022-12-23T22:43:39.266Z,5.83
2022-12-23T22:46:56.261Z,5.84
2022-12-23T22:50:53.961Z,5.84
2022-12-23T22:54:04.064Z,5.79
2022-12-23T22:57:09.417Z,5.80
2022-12-23T23:00:19.923Z,5.86
2022-12-23T23:03:32.087Z,5.82
2022-12-23T23:06:38.898Z,5.82
2022-12-23T23:09:43.846Z,5.84
2022-12-23T23:13:03.060Z,5.82
2022-12-23T23:16:14.000Z,5.78
2022-12-23T23:19:20.347Z,5.77
2022-12-23T23:22:28.553Z,5.75
2022-12-23T23:25:45.124Z,5.72
2022-12-23T23:28:54.089Z,5.74
2022-12-23T23:32:02.494Z,5.75
2022-12-23T23:35:10.840Z,5.75
2022-12-23T23:38:28.357Z,5.75
2022-12-23T23:41:32.189Z,5.73
2022-12-23T23:44:38.038Z,5.67
2022-12-23T23:47:54.895Z,5.69
2022-12-23T23:51:12.681Z,5.63
2022-12-23T23:54:16.071Z,5.59
2022-12-23T23:57:25.286Z,5.56
